Time;durP1;ratioP1;P1;durP2;ratioP2;P2;SDS_P1;SDS_P2;PMS_P1;PMS_P2;Temp;Humidity;BMP_temperature;BMP_pressure;BME280_temperature;BME280_humidity;BME280_pressure;Samples;Min_cycle;Max_cycle;Signal;HPM_P1;HPM_P2
2023/01/08 00:01:55;;;;;;;1.60;1.20;;;11.00;98.20;;;;;;4981844;28;20479;-76
2023/01/08 00:04:22;;;;;;;1.60;1.20;;;11.00;98.20;;;;;;4995975;28;20465;-74
2023/01/08 00:06:50;;;;;;;1.60;1.20;;;10.90;98.20;;;;;;4987290;28;20539;-75
2023/01/08 00:09:17;;;;;;;1.53;1.00;;;10.90;98.20;;;;;;4993892;28;20457;-75
2023/01/08 00:11:44;;;;;;;1.57;1.00;;;10.90;98.20;;;;;;4987322;28;20486;-76
2023/01/08 00:14:11;;;;;;;1.60;1.20;;;10.90;98.20;;;;;;4998593;28;20828;-75
2023/01/08 00:16:38;;;;;;;1.60;1.20;;;10.90;98.20;;;;;;4984814;28;20488;-75
2023/01/08 00:19:05;;;;;;;1.60;1.10;;;10.80;98.20;;;;;;4993689;28;20488;-75
2023/01/08 00:21:39;;;;;;;1.60;1.10;;;10.80;98.20;;;;;;4985883;28;20480;-75
2023/01/08 00:24:08;;;;;;;1.57;1.10;;;10.80;98.20;;;;;;4993226;28;20468;-74
2023/01/08 00:26:35;;;;;;;1.57;1.10;;;10.80;98.20;;;;;;4983742;28;20495;-75
2023/01/08 00:29:01;;;;;;;1.57;1.10;;;10.80;98.20;;;;;;4998358;28;20460;-76
2023/01/08 00:31:28;;;;;;;1.50;1.10;;;10.80;98.20;;;;;;4983639;28;20486;-75
2023/01/08 00:33:55;;;;;;;1.57;1.00;;;10.70;98.20;;;;;;4993716;28;20476;-75
2023/01/08 00:36:22;;;;;;;1.60;1.20;;;10.70;98.20;;;;;;4982438;28;20487;-74
2023/01/08 00:38:48;;;;;;;1.53;1.10;;;10.70;98.20;;;;;;4992566;28;20852;-74
2023/01/08 00:41:19;;;;;;;1.60;1.13;;;10.70;98.20;;;;;;4982955;28;20487;-74
2023/01/08 00:43:46;;;;;;;1.60;1.10;;;10.70;98.20;;;;;;4998948;28;20469;-74
2023/01/08 00:46:12;;;;;;;1.60;1.17;;;10.80;98.20;;;;;;4981182;28;20490;-75
2023/01/08 00:48:39;;;;;;;1.53;1.10;;;10.80;98.20;;;;;;4997013;28;20465;-75
2023/01/08 00:51:07;;;;;;;1.57;1.10;;;10.80;98.20;;;;;;4981124;28;20484;-75
2023/01/08 00:53:34;;;;;;;1.60;1.20;;;10.80;98.20;;;;;;4996604;28;20469;-75
2023/01/08 00:56:01;;;;;;;1.57;1.20;;;10.80;98.20;;;;;;4976029;28;20493;-75
2023/01/08 00:58:30;;;;;;;1.57;1.10;;;10.80;98.20;;;;;;4995961;28;20453;-74
2023/01/08 01:00:56;;;;;;;1.57;1.20;;;10.80;98.20;;;;;;4975533;28;20471;-75
2023/01/08 01:03:23;;;;;;;1.60;1.23;;;10.80;98.20;;;;;;5001736;28;20974;-74
2023/01/08 01:05:50;;;;;;;1.57;1.10;;;10.80;98.20;;;;;;4974556;28;20827;-75
2023/01/08 01:08:17;;;;;;;1.60;1.20;;;10.80;98.20;;;;;;4998796;28;20545;-76
2023/01/08 01:10:44;;;;;;;1.53;1.10;;;10.80;98.20;;;;;;4978798;28;20545;-75
2023/01/08 01:13:11;;;;;;;1.60;1.07;;;10.80;98.20;;;;;;4989825;28;20481;-76
2023/01/08 01:15:39;;;;;;;1.60;1.20;;;10.80;98.20;;;;;;4986871;28;20595;-75
2023/01/08 01:18:06;;;;;;;1.57;1.10;;;10.80;98.20;;;;;;4984577;28;20481;-75
2023/01/08 01:20:33;;;;;;;1.60;1.10;;;10.80;98.20;;;;;;4987221;28;20453;-75
2023/01/08 01:23:00;;;;;;;1.60;1.10;;;10.80;98.20;;;;;;4987434;28;20481;-75
2023/01/08 01:25:27;;;;;;;1.57;1.10;;;10.80;98.20;;;;;;4989468;28;20504;-75
2023/01/08 01:27:54;;;;;;;1.53;1.00;;;10.80;98.20;;;;;;4991367;28;20484;-74
2023/01/08 01:30:21;;;;;;;1.57;1.10;;;10.80;98.20;;;;;;4981092;28;20462;-75
2023/01/08 01:32:49;;;;;;;1.60;1.20;;;10.80;98.20;;;;;;4992617;28;20562;-75
2023/01/08 01:35:20;;;;;;;1.53;1.10;;;10.80;98.20;;;;;;4989520;28;21129;-75
2023/01/08 01:37:47;;;;;;;1.57;1.10;;;10.80;98.20;;;;;;4983147;28;20480;-75
2023/01/08 01:40:14;;;;;;;1.60;1.10;;;10.90;98.20;;;;;;4978055;28;20465;-75
2023/01/08 01:42:42;;;;;;;1.53;1.10;;;10.90;98.20;;;;;;4991484;28;20879;-75
2023/01/08 01:45:17;;;;;;;1.57;1.10;;;10.90;98.20;;;;;;4988511;28;20488;-75
2023/01/08 01:47:46;;;;;;;1.50;1.10;;;10.90;98.20;;;;;;4986389;28;20482;-75
2023/01/08 01:50:18;;;;;;;1.50;1.10;;;11.00;98.20;;;;;;4983820;28;20500;-75
2023/01/08 01:52:49;;;;;;;1.57;1.10;;;10.90;98.20;;;;;;4985783;28;20775;-76
2023/01/08 01:55:20;;;;;;;1.53;1.10;;;10.90;98.20;;;;;;4987587;28;20891;-75
2023/01/08 01:57:52;;;;;;;1.70;1.37;;;10.90;98.20;;;;;;4986961;28;20559;-76
2023/01/08 02:00:20;;;;;;;1.60;1.20;;;10.90;98.20;;;;;;4988065;28;20747;-76
2023/01/08 02:02:47;;;;;;;1.53;1.10;;;10.90;98.20;;;;;;4983309;28;20476;-75
2023/01/08 02:05:16;;;;;;;1.50;1.10;;;10.80;98.20;;;;;;4976255;28;20489;-75
2023/01/08 02:07:50;;;;;;;1.60;1.10;;;10.80;98.20;;;;;;4988793;28;20490;-76
2023/01/08 02:10:22;;;;;;;1.60;1.10;;;10.80;98.20;;;;;;4980327;28;20469;-75
2023/01/08 02:12:54;;;;;;;1.57;1.00;;;10.80;98.20;;;;;;4985636;28;20482;-75
2023/01/08 02:15:26;;;;;;;1.50;1.00;;;10.90;98.20;;;;;;4992620;28;20616;-75
2023/01/08 02:17:58;;;;;;;1.60;1.20;;;10.90;98.20;;;;;;4981062;28;20476;-75
2023/01/08 02:20:31;;;;;;;1.57;1.10;;;10.90;98.20;;;;;;4984824;28;20462;-75
2023/01/08 02:23:14;;;;;;;1.53;1.10;;;11.00;98.20;;;;;;4985693;28;20633;-75
2023/01/08 02:26:12;;;;;;;1.77;1.40;;;11.00;98.20;;;;;;4984917;28;20485;-76
2023/01/08 02:28:42;;;;;;;1.60;1.13;;;11.00;98.20;;;;;;4973687;28;20481;-75
2023/01/08 02:31:11;;;;;;;1.90;1.50;;;11.00;98.20;;;;;;4980984;28;20495;-75
2023/01/08 02:33:39;;;;;;;1.60;1.20;;;11.00;98.20;;;;;;4988847;28;20489;-75
2023/01/08 02:36:33;;;;;;;1.50;1.10;;;11.00;98.20;;;;;;4982926;28;20548;-76
2023/01/08 02:39:16;;;;;;;1.57;1.10;;;11.00;98.20;;;;;;4994140;28;20522;-75
2023/01/08 02:41:54;;;;;;;1.60;1.17;;;11.10;98.20;;;;;;4980720;28;20628;-75
2023/01/08 02:44:29;;;;;;;1.60;1.10;;;11.10;98.20;;;;;;4994713;28;21004;-76
2023/01/08 02:46:59;;;;;;;1.60;1.13;;;11.10;98.20;;;;;;4986134;28;20479;-76
2023/01/08 02:49:32;;;;;;;1.60;1.10;;;11.10;98.20;;;;;;4993437;28;20468;-76
2023/01/08 02:52:02;;;;;;;1.53;1.10;;;11.10;98.20;;;;;;4987151;28;20527;-77
2023/01/08 02:54:34;;;;;;;1.50;1.10;;;11.10;98.20;;;;;;4988620;28;20472;-77
2023/01/08 02:57:07;;;;;;;1.60;1.20;;;11.10;98.20;;;;;;4984755;28;20484;-76
2023/01/08 02:59:34;;;;;;;1.60;1.10;;;11.00;98.20;;;;;;4991087;28;20668;-76
2023/01/08 03:02:03;;;;;;;1.60;1.20;;;11.00;98.20;;;;;;4984075;28;20480;-76
2023/01/08 03:04:36;;;;;;;1.60;1.10;;;11.00;98.20;;;;;;4993124;28;20469;-76
2023/01/08 03:07:03;;;;;;;1.57;1.10;;;11.00;98.20;;;;;;4987265;28;20476;-76
2023/01/08 03:09:31;;;;;;;1.57;1.10;;;10.90;98.20;;;;;;4986452;28;20466;-76
2023/01/08 03:12:05;;;;;;;1.60;1.10;;;10.90;98.20;;;;;;4988051;28;20482;-76
2023/01/08 03:14:39;;;;;;;1.53;1.00;;;10.90;98.20;;;;;;4997714;28;20484;-76
2023/01/08 03:17:10;;;;;;;1.60;1.10;;;11.00;98.20;;;;;;4982103;28;20515;-77
2023/01/08 03:19:46;;;;;;;1.60;1.10;;;11.00;98.20;;;;;;4990771;28;21012;-77
2023/01/08 03:22:16;;;;;;;1.60;1.20;;;11.00;98.20;;;;;;4993588;28;20480;-77
2023/01/08 03:24:47;;;;;;;1.57;1.13;;;11.00;98.20;;;;;;4992057;28;20465;-76
2023/01/08 03:27:18;;;;;;;1.57;1.10;;;11.00;98.20;;;;;;4982232;28;20950;-76
2023/01/08 03:29:46;;;;;;;1.60;1.10;;;11.00;98.20;;;;;;4985712;28;20462;-78
2023/01/08 03:32:16;;;;;;;1.57;1.10;;;11.00;98.20;;;;;;4993050;28;20607;-76
2023/01/08 03:34:47;;;;;;;1.60;1.10;;;11.00;98.20;;;;;;4987993;28;20620;-76
2023/01/08 03:37:19;;;;;;;1.60;1.17;;;11.00;98.20;;;;;;4987214;28;20503;-76
2023/01/08 03:39:52;;;;;;;1.50;1.10;;;11.00;98.20;;;;;;4986150;28;20941;-79
2023/01/08 03:42:21;;;;;;;1.53;1.00;;;10.90;98.20;;;;;;4982421;28;20485;-76
2023/01/08 03:44:48;;;;;;;1.53;1.10;;;11.00;98.20;;;;;;4997299;28;20457;-76
2023/01/08 03:47:16;;;;;;;1.60;1.10;;;11.00;98.20;;;;;;4990268;28;20488;-77
2023/01/08 03:49:44;;;;;;;1.60;1.10;;;11.00;98.20;;;;;;4990751;28;20461;-77
2023/01/08 03:52:21;;;;;;;1.60;1.20;;;11.00;98.20;;;;;;4991885;28;20520;-75
2023/01/08 03:54:48;;;;;;;1.60;1.10;;;11.00;98.20;;;;;;4998983;28;20460;-77
2023/01/08 03:57:15;;;;;;;1.53;1.10;;;10.90;98.20;;;;;;4988236;28;20495;-77
2023/01/08 03:59:44;;;;;;;1.60;1.10;;;10.90;98.20;;;;;;4997815;28;20469;-76
2023/01/08 04:02:11;;;;;;;1.57;1.10;;;10.80;98.20;;;;;;4987565;28;20559;-75
2023/01/08 04:04:38;;;;;;;1.60;1.10;;;10.80;98.20;;;;;;4993640;28;21085;-75
2023/01/08 04:07:05;;;;;;;1.53;1.00;;;10.80;98.20;;;;;;4983915;28;20488;-75
2023/01/08 04:09:31;;;;;;;1.53;1.10;;;10.70;98.20;;;;;;4983931;28;20483;-76
2023/01/08 04:11:58;;;;;;;1.53;1.10;;;10.70;98.20;;;;;;4979295;28;20487;-75
2023/01/08 04:14:27;;;;;;;1.53;1.10;;;10.70;98.20;;;;;;4994376;28;20579;-75
2023/01/08 04:16:56;;;;;;;1.60;1.30;;;10.60;98.20;;;;;;4988262;28;20487;-75
2023/01/08 04:19:23;;;;;;;1.60;1.10;;;10.60;98.20;;;;;;4987436;28;20467;-74
2023/01/08 04:21:53;;;;;;;1.57;1.10;;;10.60;98.20;;;;;;4980141;28;20486;-74
2023/01/08 04:24:20;;;;;;;1.60;1.10;;;10.60;98.20;;;;;;4983008;28;20464;-74
2023/01/08 04:26:47;;;;;;;1.57;1.10;;;10.60;98.20;;;;;;4981165;28;20539;-75
2023/01/08 04:29:14;;;;;;;1.60;1.10;;;10.60;98.20;;;;;;4985885;28;20465;-75
2023/01/08 04:31:40;;;;;;;1.53;1.03;;;10.60;98.20;;;;;;4986610;28;20855;-75
2023/01/08 04:34:09;;;;;;;1.53;1.10;;;10.60;98.20;;;;;;4982501;28;20492;-74
2023/01/08 04:36:38;;;;;;;1.57;1.10;;;10.60;98.20;;;;;;4977448;28;20480;-74
2023/01/08 04:39:05;;;;;;;1.60;1.20;;;10.50;98.20;;;;;;4994670;28;20466;-74
2023/01/08 04:41:32;;;;;;;1.50;1.03;;;10.50;98.20;;;;;;4976019;28;20480;-75
2023/01/08 04:43:59;;;;;;;1.60;1.10;;;10.50;98.20;;;;;;4987291;28;20592;-74
2023/01/08 04:46:26;;;;;;;1.60;1.10;;;10.50;98.20;;;;;;4981975;28;20484;-75
2023/01/08 04:48:53;;;;;;;1.60;1.20;;;10.50;98.20;;;;;;4991039;28;20480;-74
2023/01/08 04:51:22;;;;;;;1.60;1.10;;;10.50;98.20;;;;;;4984810;28;20558;-74
2023/01/08 04:53:49;;;;;;;1.60;1.10;;;10.50;98.20;;;;;;4991968;28;20664;-75
2023/01/08 04:56:16;;;;;;;1.60;1.10;;;10.50;98.20;;;;;;4983011;28;20531;-75
2023/01/08 04:58:43;;;;;;;1.60;1.20;;;10.50;98.20;;;;;;4998065;28;21049;-75
2023/01/08 05:01:12;;;;;;;1.60;1.20;;;10.50;98.20;;;;;;4975704;28;20484;-75
2023/01/08 05:03:38;;;;;;;1.57;1.03;;;10.50;98.20;;;;;;5001132;28;21128;-75
2023/01/08 05:06:06;;;;;;;1.60;1.20;;;10.50;98.20;;;;;;4967299;28;20507;-74
2023/01/08 05:08:34;;;;;;;1.60;1.13;;;10.50;98.20;;;;;;5002359;28;20524;-74
2023/01/08 05:11:02;;;;;;;1.60;1.20;;;10.50;98.20;;;;;;4974546;28;20494;-74
2023/01/08 05:13:29;;;;;;;1.60;1.10;;;10.50;98.20;;;;;;5004588;28;20611;-75
2023/01/08 05:15:59;;;;;;;1.60;1.10;;;10.50;98.20;;;;;;4967261;28;20481;-74
2023/01/08 05:18:27;;;;;;;1.53;1.10;;;10.50;98.20;;;;;;5002652;28;20475;-74
2023/01/08 05:20:54;;;;;;;1.60;1.20;;;10.50;98.20;;;;;;4972886;28;20519;-74
2023/01/08 05:23:21;;;;;;;1.60;1.20;;;10.50;98.20;;;;;;5005986;28;20457;-74
2023/01/08 05:25:49;;;;;;;1.60;1.20;;;10.50;98.20;;;;;;4984570;28;20561;-74
2023/01/08 05:28:16;;;;;;;1.60;1.10;;;10.50;98.20;;;;;;4992684;28;20470;-74
2023/01/08 05:30:43;;;;;;;1.60;1.20;;;10.50;98.20;;;;;;4976029;28;20481;-74
2023/01/08 05:33:10;;;;;;;1.60;1.17;;;10.50;98.20;;;;;;4989739;28;20485;-74
2023/01/08 05:35:39;;;;;;;1.60;1.20;;;10.50;98.20;;;;;;4978418;28;21011;-74
2023/01/08 05:38:06;;;;;;;1.60;1.10;;;10.50;98.20;;;;;;4997995;23;20501;-75
2023/01/08 05:40:33;;;;;;;1.60;1.10;;;10.40;98.20;;;;;;4985053;28;20461;-80
2023/01/08 05:43:04;;;;;;;1.60;1.10;;;10.40;98.20;;;;;;4993965;28;20877;-75
2023/01/08 05:45:31;;;;;;;1.60;1.10;;;10.40;98.20;;;;;;4978186;28;20544;-77
2023/01/08 05:47:57;;;;;;;1.60;1.10;;;10.40;98.20;;;;;;4993714;28;20480;-78
2023/01/08 05:50:24;;;;;;;1.60;1.30;;;10.30;98.20;;;;;;4991362;28;20469;-79
2023/01/08 05:52:51;;;;;;;1.60;1.10;;;10.30;98.20;;;;;;4995691;28;20488;-77
2023/01/08 05:55:18;;;;;;;1.60;1.30;;;10.20;98.20;;;;;;4991275;28;20465;-77
2023/01/08 05:57:44;;;;;;;1.60;1.10;;;10.20;98.20;;;;;;4994862;28;20492;-80
2023/01/08 06:00:14;;;;;;;1.60;1.20;;;10.20;98.20;;;;;;4991790;28;20469;-77
2023/01/08 06:02:46;;;;;;;1.57;1.10;;;10.10;98.20;;;;;;4994093;28;20937;-76
2023/01/08 06:05:13;;;;;;;1.60;1.20;;;10.10;98.20;;;;;;4991652;28;20461;-79
2023/01/08 06:07:39;;;;;;;1.60;1.10;;;10.10;98.20;;;;;;4993950;28;20575;-76
2023/01/08 06:10:07;;;;;;;1.60;1.10;;;10.10;98.20;;;;;;4991388;28;20466;-75
2023/01/08 06:12:34;;;;;;;1.60;1.10;;;10.10;98.20;;;;;;4989719;28;20479;-75
2023/01/08 06:15:00;;;;;;;1.60;1.20;;;10.10;98.20;;;;;;4990102;28;20492;-75
2023/01/08 06:17:28;;;;;;;1.60;1.10;;;10.10;98.20;;;;;;4993477;28;20886;-78
2023/01/08 06:19:55;;;;;;;1.57;1.10;;;10.10;98.20;;;;;;4991999;28;20488;-81
2023/01/08 06:22:22;;;;;;;1.60;1.10;;;10.10;98.20;;;;;;4990911;28;20484;-75
2023/01/08 06:24:49;;;;;;;1.60;1.10;;;10.10;98.20;;;;;;4993255;28;20457;-76
2023/01/08 06:27:15;;;;;;;1.60;1.13;;;10.10;98.20;;;;;;4989026;28;20500;-75
2023/01/08 06:29:42;;;;;;;1.60;1.30;;;10.20;98.20;;;;;;4992992;28;20477;-80
2023/01/08 06:32:09;;;;;;;1.60;1.10;;;10.30;98.20;;;;;;4989059;28;20487;-75
2023/01/08 06:34:37;;;;;;;1.60;1.20;;;10.30;98.20;;;;;;4994781;28;20484;-77
2023/01/08 06:37:04;;;;;;;1.60;1.20;;;10.30;98.20;;;;;;4987137;28;20492;-77
2023/01/08 06:39:31;;;;;;;1.60;1.20;;;10.40;98.20;;;;;;4991521;28;20465;-75
2023/01/08 06:41:57;;;;;;;1.60;1.10;;;10.40;98.20;;;;;;4981321;28;20487;-76
2023/01/08 06:44:24;;;;;;;1.60;1.10;;;10.40;98.20;;;;;;4990079;28;21002;-76
2023/01/08 06:46:51;;;;;;;1.60;1.10;;;10.40;98.20;;;;;;4981489;28;20480;-75
2023/01/08 06:49:18;;;;;;;1.57;1.10;;;10.40;98.20;;;;;;4990657;28;20850;-78
2023/01/08 06:51:46;;;;;;;1.53;1.10;;;10.30;98.20;;;;;;4986111;28;20607;-77
2023/01/08 06:54:13;;;;;;;1.60;1.20;;;10.20;98.20;;;;;;4994016;28;20512;-76
2023/01/08 06:56:40;;;;;;;1.60;1.20;;;10.00;98.20;;;;;;4982200;28;20484;-76
2023/01/08 06:59:07;;;;;;;1.60;1.30;;;9.90;98.20;;;;;;4996482;28;20987;-75
2023/01/08 07:01:34;;;;;;;1.60;1.20;;;9.80;98.20;;;;;;4980544;28;20484;-76
2023/01/08 07:04:00;;;;;;;1.60;1.10;;;9.70;98.20;;;;;;4988949;28;20456;-78
2023/01/08 07:06:27;;;;;;;1.60;1.20;;;9.70;98.20;;;;;;4979673;28;20487;-73
2023/01/08 07:08:56;;;;;;;1.60;1.20;;;9.60;98.20;;;;;;4991680;28;20471;-76
2023/01/08 07:11:23;;;;;;;1.60;1.10;;;9.50;98.20;;;;;;4982293;28;20476;-75
2023/01/08 07:13:50;;;;;;;1.60;1.17;;;9.50;98.20;;;;;;4996180;28;20488;-73
2023/01/08 07:16:17;;;;;;;1.60;1.20;;;9.40;98.20;;;;;;4978200;28;20487;-72
2023/01/08 07:18:43;;;;;;;1.60;1.10;;;9.30;98.20;;;;;;4992685;28;20488;-75
2023/01/08 07:21:10;;;;;;;1.60;1.20;;;9.30;98.20;;;;;;4981213;28;20538;-74
2023/01/08 07:23:37;;;;;;;1.60;1.20;;;9.20;98.20;;;;;;4994338;28;20460;-71
2023/01/08 07:26:07;;;;;;;1.60;1.20;;;9.10;98.20;;;;;;4980358;28;20496;-77
2023/01/08 07:28:34;;;;;;;1.60;1.20;;;9.10;98.20;;;;;;4993315;28;20950;-74
2023/01/08 07:31:03;;;;;;;1.60;1.20;;;9.10;98.20;;;;;;4980405;28;20459;-77
2023/01/08 07:33:30;;;;;;;1.60;1.20;;;9.00;98.20;;;;;;4997288;28;20520;-76
2023/01/08 07:35:57;;;;;;;1.70;1.30;;;9.00;98.20;;;;;;4980093;28;20703;-73
2023/01/08 07:38:24;;;;;;;1.67;1.30;;;9.00;98.20;;;;;;4992526;28;20488;-75
2023/01/08 07:40:51;;;;;;;1.60;1.20;;;9.00;98.20;;;;;;4981836;28;20467;-75
2023/01/08 07:43:20;;;;;;;1.60;1.20;;;9.00;98.20;;;;;;5004247;28;20925;-73
2023/01/08 07:45:46;;;;;;;1.60;1.20;;;9.00;98.20;;;;;;4990117;28;20469;-74
2023/01/08 07:48:14;;;;;;;1.60;1.20;;;9.00;98.20;;;;;;4977727;28;20493;-75
2023/01/08 07:50:41;;;;;;;1.70;1.30;;;9.00;98.20;;;;;;4990391;28;20464;-77
2023/01/08 07:53:08;;;;;;;1.60;1.20;;;9.00;98.20;;;;;;4994558;28;20487;-75
2023/01/08 07:55:35;;;;;;;1.60;1.27;;;9.00;98.20;;;;;;4991508;28;21005;-75
2023/01/08 07:58:07;;;;;;;1.60;1.10;;;9.00;98.20;;;;;;4992070;28;20499;-76
2023/01/08 08:00:35;;;;;;;1.60;1.20;;;9.00;98.20;;;;;;4991763;28;20472;-74
2023/01/08 08:03:04;;;;;;;1.60;1.10;;;9.00;98.20;;;;;;4984137;28;20479;-77
2023/01/08 08:05:31;;;;;;;1.60;1.20;;;9.00;98.20;;;;;;4992230;28;20463;-78
2023/01/08 08:07:57;;;;;;;1.60;1.20;;;9.00;98.20;;;;;;4985983;28;20495;-77
2023/01/08 08:10:24;;;;;;;1.60;1.20;;;9.00;98.20;;;;;;4989495;28;20468;-77
2023/01/08 08:12:51;;;;;;;1.60;1.20;;;9.00;98.20;;;;;;4987573;28;20486;-75
2023/01/08 08:15:18;;;;;;;1.60;1.10;;;8.90;98.20;;;;;;4991157;28;20497;-74
2023/01/08 08:17:49;;;;;;;1.60;1.30;;;8.90;98.20;;;;;;4980782;28;20489;-74
2023/01/08 08:20:16;;;;;;;1.60;1.20;;;8.90;98.20;;;;;;4988029;28;20472;-74
2023/01/08 08:22:43;;;;;;;1.60;1.20;;;9.00;98.20;;;;;;4993660;28;20491;-73
2023/01/08 08:25:10;;;;;;;1.70;1.30;;;9.00;98.20;;;;;;4989160;28;20457;-73
2023/01/08 08:27:37;;;;;;;1.60;1.27;;;8.90;98.20;;;;;;4984908;28;20489;-73
2023/01/08 08:30:04;;;;;;;1.60;1.30;;;8.90;98.20;;;;;;4986933;28;20794;-73
2023/01/08 08:32:31;;;;;;;1.60;1.20;;;8.90;98.20;;;;;;4989490;28;20933;-74
2023/01/08 08:35:01;;;;;;;1.60;1.10;;;9.00;98.20;;;;;;4989499;28;20489;-73
2023/01/08 08:37:27;;;;;;;1.60;1.30;;;9.00;98.20;;;;;;4987924;28;21059;-74
2023/01/08 08:39:54;;;;;;;1.60;1.20;;;9.00;98.20;;;;;;4990821;28;20470;-74
2023/01/08 08:42:21;;;;;;;1.60;1.20;;;9.00;98.20;;;;;;4982277;28;20494;-74
2023/01/08 08:44:48;;;;;;;1.60;1.10;;;9.00;98.20;;;;;;4989524;28;20464;-74
2023/01/08 08:47:16;;;;;;;1.60;1.20;;;9.00;98.20;;;;;;4978609;28;20484;-73
2023/01/08 08:49:43;;;;;;;1.60;1.30;;;9.00;98.20;;;;;;4989665;28;20461;-73
2023/01/08 08:52:12;;;;;;;1.60;1.20;;;9.00;98.20;;;;;;4984572;23;20485;-74
2023/01/08 08:54:40;;;;;;;1.60;1.20;;;8.90;98.20;;;;;;4993909;28;21053;-75
2023/01/08 08:57:07;;;;;;;1.60;1.20;;;8.90;98.20;;;;;;4978141;28;20899;-75
2023/01/08 08:59:34;;;;;;;1.60;1.20;;;9.00;98.20;;;;;;4989950;28;20515;-75
2023/01/08 09:02:01;;;;;;;1.60;1.20;;;8.90;98.20;;;;;;4965234;28;20492;-74
2023/01/08 09:04:30;;;;;;;1.60;1.20;;;9.00;98.20;;;;;;4967252;28;20482;-74
2023/01/08 09:06:57;;;;;;;1.60;1.20;;;8.90;98.20;;;;;;4955042;28;20482;-75
2023/01/08 09:09:25;;;;;;;1.60;1.20;;;8.90;98.20;;;;;;4975600;28;20588;-76
2023/01/08 09:11:53;;;;;;;1.70;1.37;;;8.90;98.20;;;;;;4972346;28;20539;-76
2023/01/08 09:14:19;;;;;;;1.70;1.40;;;8.90;98.20;;;;;;4978900;28;20493;-74
2023/01/08 09:16:46;;;;;;;1.67;1.27;;;8.80;98.20;;;;;;4960214;28;20482;-74
2023/01/08 09:19:13;;;;;;;1.60;1.20;;;8.80;98.20;;;;;;4977857;28;20465;-75
2023/01/08 09:21:40;;;;;;;1.60;1.20;;;8.80;98.20;;;;;;4962492;28;20487;-74
2023/01/08 09:24:08;;;;;;;1.60;1.17;;;8.80;98.20;;;;;;4963296;28;20465;-75
2023/01/08 09:26:36;;;;;;;1.63;1.20;;;8.80;98.20;;;;;;4964354;28;20498;-76
2023/01/08 09:29:03;;;;;;;1.60;1.20;;;8.80;98.20;;;;;;4965216;28;20469;-74
2023/01/08 09:31:30;;;;;;;1.60;1.20;;;8.90;98.20;;;;;;4975872;28;20477;-75
2023/01/08 09:33:57;;;;;;;1.80;1.70;;;8.90;98.20;;;;;;4981127;28;21102;-74
2023/01/08 09:36:24;;;;;;;1.60;1.20;;;9.00;98.20;;;;;;4970862;28;20485;-74
2023/01/08 09:38:51;;;;;;;1.60;1.20;;;9.10;98.20;;;;;;4985710;28;20453;-74
2023/01/08 09:41:21;;;;;;;1.63;1.30;;;9.20;98.20;;;;;;4970133;28;20493;-75
2023/01/08 09:43:52;;;;;;;1.60;1.20;;;9.40;98.20;;;;;;4959786;28;20462;-74
2023/01/08 09:46:21;;;;;;;1.67;1.30;;;9.50;98.20;;;;;;4963890;28;20584;-72
2023/01/08 09:48:49;;;;;;;1.67;1.30;;;9.70;98.20;;;;;;4969025;28;20527;-73
2023/01/08 09:51:19;;;;;;;1.60;1.20;;;9.80;98.20;;;;;;4970981;28;20860;-76
2023/01/08 09:53:50;;;;;;;1.60;1.10;;;9.90;98.20;;;;;;4978106;28;20541;-75
2023/01/08 09:56:18;;;;;;;1.60;1.20;;;9.90;98.20;;;;;;4964255;28;20493;-76
2023/01/08 09:58:49;;;;;;;1.60;1.20;;;10.00;98.20;;;;;;4971623;28;20940;-75
2023/01/08 10:01:20;;;;;;;1.60;1.20;;;10.00;98.20;;;;;;4970318;28;20528;-75
2023/01/08 10:03:51;;;;;;;1.60;1.10;;;10.10;98.20;;;;;;4983195;28;21070;-75
2023/01/08 10:06:18;;;;;;;1.60;1.20;;;10.10;98.20;;;;;;4966869;28;20481;-74
2023/01/08 10:08:45;;;;;;;1.60;1.10;;;10.10;98.20;;;;;;4978342;28;20837;-75
2023/01/08 10:11:14;;;;;;;1.60;1.20;;;10.10;98.20;;;;;;4967553;28;20770;-76
2023/01/08 10:13:44;;;;;;;1.60;1.10;;;10.20;98.20;;;;;;4975689;28;20472;-74
2023/01/08 10:16:22;;;;;;;1.60;1.20;;;10.20;98.20;;;;;;4964047;28;21093;-73
2023/01/08 10:18:48;;;;;;;1.60;1.10;;;10.30;98.20;;;;;;4982146;28;20461;-75
2023/01/08 10:21:18;;;;;;;1.60;1.20;;;10.40;98.20;;;;;;4970963;28;20667;-77
2023/01/08 10:23:52;;;;;;;1.60;1.20;;;10.50;98.20;;;;;;4979508;28;20566;-74
2023/01/08 10:26:27;;;;;;;1.60;1.10;;;10.60;98.20;;;;;;4960688;28;20482;-76
2023/01/08 10:29:06;;;;;;;1.60;1.10;;;10.70;98.20;;;;;;4967902;28;20488;-75
2023/01/08 10:31:44;;;;;;;1.60;1.30;;;10.70;98.20;;;;;;4966304;28;20495;-75
2023/01/08 10:34:12;;;;;;;1.60;1.10;;;10.80;98.20;;;;;;4978891;28;20476;-76
2023/01/08 10:36:42;;;;;;;1.60;1.10;;;10.90;98.20;;;;;;4973124;28;20491;-74
2023/01/08 10:39:21;;;;;;;1.60;1.10;;;11.00;98.20;;;;;;4980464;28;20453;-74
2023/01/08 10:41:52;;;;;;;1.60;1.20;;;11.00;98.20;;;;;;4960221;28;20490;-74
2023/01/08 10:44:21;;;;;;;1.60;1.10;;;11.00;98.20;;;;;;4965454;28;20485;-73
2023/01/08 10:47:07;;;;;;;1.60;1.10;;;11.10;98.20;;;;;;4965365;28;20515;-73
2023/01/08 10:49:42;;;;;;;1.60;1.10;;;11.10;98.20;;;;;;4985403;28;20457;-75
2023/01/08 10:52:27;;;;;;;1.60;1.17;;;11.20;98.20;;;;;;4970921;28;20572;-73
2023/01/08 10:54:55;;;;;;;1.60;1.10;;;11.30;98.20;;;;;;4977823;28;20535;-75
2023/01/08 10:57:26;;;;;;;1.60;1.10;;;11.50;98.20;;;;;;4968352;28;21066;-74
2023/01/08 10:59:58;;;;;;;1.60;1.10;;;11.50;98.20;;;;;;4983823;28;20693;-74
2023/01/08 11:02:33;;;;;;;1.60;1.00;;;11.60;98.20;;;;;;4947351;28;21137;-75
2023/01/08 11:05:01;;;;;;;1.60;1.00;;;11.60;98.20;;;;;;4973719;28;20461;-75
2023/01/08 11:07:30;;;;;;;1.60;1.10;;;11.70;98.20;;;;;;4970966;28;20481;-74
2023/01/08 11:09:57;;;;;;;1.60;1.00;;;11.70;98.20;;;;;;4971392;28;20552;-74
2023/01/08 11:12:34;;;;;;;1.60;1.10;;;11.80;98.20;;;;;;4966974;28;20483;-74
2023/01/08 11:15:03;;;;;;;1.60;1.10;;;11.80;98.20;;;;;;4972597;28;20592;-73
2023/01/08 11:17:34;;;;;;;5.73;2.60;;;11.80;98.20;;;;;;4967185;28;20539;-74
2023/01/08 11:20:18;;;;;;;1.60;1.20;;;11.80;98.20;;;;;;4969147;28;20690;-74
2023/01/08 11:22:46;;;;;;;1.60;1.10;;;11.80;98.20;;;;;;4947665;28;20482;-74
2023/01/08 11:25:19;;;;;;;1.60;1.10;;;11.80;98.20;;;;;;4974755;28;20469;-73
2023/01/08 11:27:47;;;;;;;1.60;1.10;;;11.80;98.20;;;;;;4941731;28;20482;-73
2023/01/08 11:30:17;;;;;;;1.60;1.17;;;11.80;98.20;;;;;;4967347;28;20528;-73
2023/01/08 11:32:51;;;;;;;1.60;1.20;;;11.80;98.20;;;;;;4959134;28;20494;-74
2023/01/08 11:35:21;;;;;;;1.57;1.00;;;11.80;98.20;;;;;;4970092;28;20798;-74
2023/01/08 11:37:52;;;;;;;1.60;1.10;;;11.80;98.20;;;;;;4953961;28;21152;-73
2023/01/08 11:40:29;;;;;;;1.60;1.10;;;11.80;98.20;;;;;;4975015;28;20519;-74
2023/01/08 11:43:29;;;;;;;1.60;1.10;;;11.80;98.20;;;;;;4941987;28;21024;-74
2023/01/08 11:46:13;;;;;;;1.57;1.00;;;11.80;98.20;;;;;;4954844;28;20465;-74
2023/01/08 11:48:57;;;;;;;1.60;1.10;;;11.80;98.20;;;;;;4957955;28;20551;-74
2023/01/08 11:51:42;;;;;;;1.60;1.10;;;11.90;98.20;;;;;;4956336;28;20554;-74
2023/01/08 11:54:30;;;;;;;1.60;1.00;;;11.90;98.20;;;;;;4965616;28;20456;-74
2023/01/08 11:57:13;;;;;;;1.60;1.13;;;11.90;98.20;;;;;;4948707;28;20919;-75
2023/01/08 12:00:02;;;;;;;1.60;1.10;;;12.00;98.20;;;;;;4968173;28;20470;-75
2023/01/08 12:02:44;;;;;;;1.53;1.00;;;12.00;98.20;;;;;;4964295;28;20834;-73
2023/01/08 12:05:33;;;;;;;1.60;1.00;;;12.00;98.20;;;;;;4974205;28;21047;-74
2023/01/08 12:08:06;;;;;;;1.60;1.20;;;12.00;98.20;;;;;;4943715;28;20598;-73
2023/01/08 12:10:45;;;;;;;1.57;1.10;;;11.90;98.20;;;;;;4975162;28;20465;-73
2023/01/08 12:13:32;;;;;;;1.57;1.10;;;11.90;98.20;;;;;;4952740;28;21150;-74
2023/01/08 12:16:12;;;;;;;1.50;1.00;;;11.90;98.20;;;;;;4964848;28;20585;-72
2023/01/08 12:19:07;;;;;;;1.60;1.10;;;11.90;98.20;;;;;;4967561;28;20545;-75
2023/01/08 12:21:45;;;;;;;1.60;1.13;;;11.90;98.20;;;;;;4969669;28;20501;-73
2023/01/08 12:24:38;;;;;;;1.60;1.10;;;11.90;98.20;;;;;;4979226;28;20489;-72
2023/01/08 12:27:15;;;;;;;1.57;1.10;;;11.90;98.20;;;;;;4965935;28;20571;-75
2023/01/08 12:30:04;;;;;;;1.57;1.00;;;11.90;98.20;;;;;;4978025;28;20473;-74
2023/01/08 12:32:36;;;;;;;1.60;1.10;;;11.90;98.20;;;;;;4971557;28;20496;-76
2023/01/08 12:35:11;;;;;;;1.57;1.10;;;11.90;98.20;;;;;;4977546;28;20469;-73
2023/01/08 12:37:52;;;;;;;1.57;1.13;;;11.90;98.20;;;;;;4946956;28;20931;-74
2023/01/08 12:40:23;;;;;;;1.60;1.10;;;11.90;98.20;;;;;;4969777;28;20465;-75
2023/01/08 12:42:51;;;;;;;1.60;1.10;;;11.90;98.20;;;;;;4959486;28;20497;-73
2023/01/08 12:45:24;;;;;;;1.53;1.10;;;11.90;98.20;;;;;;4972196;28;20469;-75
2023/01/08 12:47:55;;;;;;;1.53;1.00;;;12.00;98.20;;;;;;4965552;28;20507;-73
2023/01/08 12:50:36;;;;;;;1.57;1.10;;;12.00;98.20;;;;;;4975410;28;20511;-74
2023/01/08 12:53:26;;;;;;;1.50;1.00;;;12.00;98.20;;;;;;4949354;28;20482;-73
2023/01/08 12:56:04;;;;;;;1.60;1.00;;;11.90;98.20;;;;;;4968004;28;20486;-73
2023/01/08 12:58:40;;;;;;;1.50;1.00;;;11.90;98.20;;;;;;4979345;28;20464;-74
2023/01/08 13:01:22;;;;;;;1.53;1.00;;;11.90;98.20;;;;;;4964709;28;20494;-74
2023/01/08 13:03:56;;;;;;;1.57;1.00;;;11.90;98.20;;;;;;4977678;28;20460;-73